createdAt,value
2023-05-22T00:01:26.672Z,73.30
2023-05-22T00:06:28.822Z,74.40
2023-05-22T00:11:31.105Z,74.30
2023-05-22T00:16:33.386Z,74.10
2023-05-22T00:21:37.721Z,74.60
2023-05-22T00:26:40.001Z,74.60
2023-05-22T00:31:42.205Z,74.80
2023-05-22T00:36:44.831Z,75.00
2023-05-22T00:41:47.505Z,74.80
2023-05-22T00:46:51.264Z,75.10
2023-05-22T00:51:53.508Z,75.20
2023-05-22T00:56:56.023Z,75.30
2023-05-22T01:01:58.810Z,75.10
2023-05-22T01:07:03.155Z,76.10
2023-05-22T01:12:36.535Z,77.60
2023-05-22T01:18:11.422Z,78.30
2023-05-22T01:23:44.767Z,76.70
2023-05-22T01:29:04.832Z,76.70
2023-05-22T01:34:12.662Z,77.10
2023-05-22T01:39:17.528Z,76.10
2023-05-22T01:44:20.901Z,76.20
2023-05-22T01:49:24.035Z,77.50
2023-05-22T01:54:42.469Z,78.80
2023-05-22T01:59:55.631Z,78.40
2023-05-22T02:05:01.482Z,77.10
2023-05-22T02:10:05.699Z,76.80
2023-05-22T02:15:09.517Z,78.20
2023-05-22T02:20:15.708Z,78.50
2023-05-22T02:25:19.093Z,77.50
2023-05-22T02:30:21.587Z,77.10
2023-05-22T02:35:26.425Z,76.70
2023-05-22T02:40:28.636Z,77.10
2023-05-22T02:45:31.437Z,77.60
2023-05-22T02:50:33.671Z,77.60
2023-05-22T02:55:36.131Z,77.20
2023-05-22T03:00:39.124Z,76.80
2023-05-22T03:05:41.482Z,76.20
2023-05-22T03:10:44.651Z,75.90
2023-05-22T03:15:47.188Z,76.80
2023-05-22T03:20:51.303Z,77.00
2023-05-22T03:25:53.557Z,78.30
2023-05-22T03:30:57.470Z,79.10
2023-05-22T03:36:03.832Z,79.40
2023-05-22T03:41:06.207Z,79.40
2023-05-22T03:46:08.567Z,78.40
2023-05-22T03:51:10.769Z,78.10
2023-05-22T03:56:13.652Z,78.30
2023-05-22T04:01:17.127Z,77.80
2023-05-22T04:06:22.422Z,78.30
2023-05-22T04:11:24.749Z,77.60
2023-05-22T04:16:29.027Z,78.60
2023-05-22T04:21:35.883Z,78.20
2023-05-22T04:26:41.007Z,78.10
2023-05-22T04:31:44.777Z,78.70
2023-05-22T04:36:48.219Z,79.90
2023-05-22T04:41:50.670Z,79.50
2023-05-22T04:46:53.953Z,78.80
2023-05-22T04:51:57.598Z,78.10
2023-05-22T04:57:00.059Z,78.00
2023-05-22T05:02:02.480Z,77.50
2023-05-22T05:07:06.306Z,77.30
2023-05-22T05:12:08.913Z,77.80
2023-05-22T05:17:11.341Z,77.90
2023-05-22T05:22:15.663Z,77.90
2023-05-22T05:27:18.276Z,77.70
2023-05-22T05:32:21.147Z,78.20
2023-05-22T05:37:35.483Z,77.90
2023-05-22T05:42:39.579Z,78.00
2023-05-22T05:47:44.461Z,78.10
2023-05-22T05:52:47.096Z,77.40
2023-05-22T05:57:52.589Z,77.10
2023-05-22T06:03:01.632Z,77.80
2023-05-22T06:08:32.630Z,77.60
2023-05-22T06:13:35.333Z,77.30
2023-05-22T06:18:37.515Z,76.60
2023-05-22T06:23:40.415Z,76.40
2023-05-22T06:28:45.304Z,76.20
2023-05-22T06:33:47.890Z,75.40
2023-05-22T06:38:50.475Z,76.20
2023-05-22T06:44:16.129Z,77.90
2023-05-22T06:49:19.399Z,76.30
2023-05-22T06:54:28.782Z,75.20
2023-05-22T06:59:32.892Z,74.20
2023-05-22T07:04:40.769Z,73.50
2023-05-22T07:09:47.645Z,72.90
2023-05-22T07:14:50.511Z,72.30
2023-05-22T07:19:53.121Z,71.80
2023-05-22T07:24:56.228Z,71.60
2023-05-22T07:30:03.432Z,70.80
2023-05-22T07:35:08.195Z,70.10
2023-05-22T07:40:11.407Z,69.00
2023-05-22T07:45:13.880Z,67.80
2023-05-22T07:50:17.205Z,66.60
2023-05-22T07:55:21.425Z,66.40
2023-05-22T08:00:25.516Z,66.00
2023-05-22T08:05:27.786Z,66.60
2023-05-22T08:10:41.706Z,67.90
2023-05-22T08:15:49.751Z,66.70
2023-05-22T08:20:54.945Z,66.10
2023-05-22T08:25:58.203Z,64.70
2023-05-22T08:31:00.385Z,66.60
2023-05-22T08:36:02.521Z,66.20
2023-05-22T08:41:06.957Z,66.20
2023-05-22T08:46:10.742Z,64.50
2023-05-22T08:51:18.885Z,64.60
2023-05-22T08:56:22.429Z,65.00
2023-05-22T09:01:25.281Z,65.60
2023-05-22T09:06:29.379Z,65.20
2023-05-22T09:11:31.729Z,66.20
2023-05-22T09:16:34.251Z,64.80
2023-05-22T09:21:37.509Z,61.50
2023-05-22T09:26:40.575Z,60.60
2023-05-22T09:31:44.935Z,59.30
2023-05-22T09:36:51.505Z,59.70
2023-05-22T09:41:53.671Z,61.00
2023-05-22T09:46:56.012Z,61.80
2023-05-22T09:51:59.392Z,62.40
2023-05-22T09:57:05.044Z,61.60
2023-05-22T10:02:09.150Z,59.80
2023-05-22T10:07:14.259Z,58.30
2023-05-22T10:12:20.972Z,59.00
2023-05-22T10:17:25.079Z,58.60
2023-05-22T10:22:29.501Z,59.80
2023-05-22T10:27:32.106Z,59.10
2023-05-22T10:32:48.056Z,58.20
2023-05-22T10:38:03.654Z,56.30
2023-05-22T10:43:06.009Z,55.60
2023-05-22T10:48:12.009Z,55.30
2023-05-22T10:53:28.246Z,54.70
2023-05-22T10:58:34.611Z,54.40
2023-05-22T11:04:00.536Z,54.00
2023-05-22T11:09:20.645Z,53.60
2023-05-22T11:14:26.001Z,52.70
2023-05-22T11:19:28.332Z,52.80
2023-05-22T11:24:34.648Z,52.80
2023-05-22T11:29:39.101Z,52.50
2023-05-22T11:34:43.267Z,52.10
2023-05-22T11:40:01.052Z,51.60
2023-05-22T11:45:04.904Z,51.20
2023-05-22T11:50:10.940Z,51.40
2023-05-22T11:55:13.167Z,50.70
2023-05-22T12:00:16.395Z,51.00
2023-05-22T12:05:21.994Z,50.70
2023-05-22T12:10:26.274Z,50.70
2023-05-22T12:15:28.633Z,50.70
2023-05-22T12:20:31.450Z,50.70
2023-05-22T12:25:37.409Z,50.60
2023-05-22T12:30:42.243Z,50.50
2023-05-22T12:35:44.553Z,50.40
2023-05-22T12:40:47.240Z,50.00
2023-05-22T12:45:50.001Z,50.20
2023-05-22T12:50:52.283Z,49.20
2023-05-22T12:55:54.388Z,49.60
2023-05-22T13:00:56.705Z,49.40
2023-05-22T13:05:58.906Z,49.20
2023-05-22T13:11:01.294Z,48.10
2023-05-22T13:16:03.497Z,49.10
2023-05-22T13:21:06.451Z,49.70
2023-05-22T13:26:08.805Z,50.00
2023-05-22T13:31:11.018Z,50.00
2023-05-22T13:36:13.530Z,49.90
2023-05-22T13:41:16.159Z,49.90
2023-05-22T13:46:20.660Z,49.80
2023-05-22T13:51:22.879Z,51.50
2023-05-22T13:56:24.989Z,51.90
2023-05-22T14:01:27.728Z,51.20
2023-05-22T14:06:30.030Z,52.10
2023-05-22T14:11:32.228Z,51.60
2023-05-22T14:16:34.500Z,51.40
2023-05-22T14:21:36.723Z,51.10
2023-05-22T14:26:39.418Z,49.20
2023-05-22T14:31:51.792Z,50.60
2023-05-22T14:36:56.656Z,48.10
2023-05-22T14:41:58.822Z,47.60
2023-05-22T14:47:01.101Z,51.10
2023-05-22T14:52:03.273Z,51.00
2023-05-22T14:57:05.762Z,49.20
2023-05-22T15:02:08.107Z,51.10
2023-05-22T15:07:10.375Z,53.00
2023-05-22T15:12:15.664Z,52.50
2023-05-22T15:17:18.261Z,52.70
2023-05-22T15:22:20.543Z,53.20
2023-05-22T15:27:22.839Z,54.00
2023-05-22T15:32:25.018Z,54.40
2023-05-22T15:37:29.736Z,54.00
2023-05-22T15:42:33.869Z,55.40
2023-05-22T15:47:36.038Z,55.60
2023-05-22T15:52:38.549Z,56.20
2023-05-22T15:57:40.830Z,57.00
2023-05-22T16:02:43.509Z,57.20
2023-05-22T16:07:46.216Z,55.50
2023-05-22T16:12:48.563Z,55.30
2023-05-22T16:17:50.897Z,54.10
2023-05-22T16:22:53.125Z,53.30
2023-05-22T16:27:55.420Z,54.10
2023-05-22T16:32:57.840Z,54.40
2023-05-22T16:38:00.006Z,55.50
2023-05-22T16:43:02.369Z,54.80
2023-05-22T16:48:04.697Z,56.30
2023-05-22T16:53:06.934Z,56.30
2023-05-22T16:58:13.013Z,56.10
2023-05-22T17:03:15.557Z,55.90
2023-05-22T17:08:18.264Z,55.40
2023-05-22T17:13:21.210Z,55.60
2023-05-22T17:18:23.514Z,56.70
2023-05-22T17:23:25.994Z,58.00
2023-05-22T17:28:28.128Z,59.10
2023-05-22T17:33:30.309Z,58.90
2023-05-22T17:38:32.458Z,59.40
2023-05-22T17:43:35.485Z,58.80
2023-05-22T17:48:37.613Z,59.60
2023-05-22T17:53:39.828Z,59.70
2023-05-22T17:58:41.934Z,60.30
2023-05-22T18:03:46.303Z,60.80
2023-05-22T18:08:48.973Z,61.30
2023-05-22T18:13:51.112Z,61.20
2023-05-22T18:18:53.390Z,60.20
2023-05-22T18:23:56.062Z,62.50
2023-05-22T18:28:58.242Z,61.60
2023-05-22T18:34:00.445Z,62.30
2023-05-22T18:39:02.667Z,62.90
2023-05-22T18:44:04.840Z,60.90
2023-05-22T18:49:07.077Z,62.20
2023-05-22T18:54:09.298Z,60.90
2023-05-22T18:59:11.500Z,62.60
2023-05-22T19:04:13.709Z,61.30
2023-05-22T19:09:19.065Z,62.20
2023-05-22T19:14:21.385Z,62.90
2023-05-22T19:19:23.526Z,61.40
2023-05-22T19:24:27.708Z,62.50
2023-05-22T19:29:29.901Z,63.00
2023-05-22T19:34:32.207Z,63.50
2023-05-22T19:39:34.432Z,64.80
2023-05-22T19:44:36.647Z,65.40
2023-05-22T19:49:38.853Z,66.00
2023-05-22T19:54:40.999Z,65.40
2023-05-22T19:59:43.304Z,65.00
2023-05-22T20:04:48.625Z,65.70
2023-05-22T20:09:51.572Z,64.60
2023-05-22T20:14:54.353Z,65.00
2023-05-22T20:19:58.913Z,65.30
2023-05-22T20:25:01.627Z,65.40
2023-05-22T20:30:04.697Z,65.50
2023-05-22T20:35:11.025Z,65.80
2023-05-22T20:40:14.586Z,65.30
2023-05-22T20:45:17.658Z,65.60
2023-05-22T20:50:20.035Z,64.40
2023-05-22T20:55:22.309Z,65.90
2023-05-22T21:00:24.485Z,65.60
2023-05-22T21:05:26.674Z,65.40
2023-05-22T21:10:28.963Z,65.70
2023-05-22T21:15:31.103Z,65.30
2023-05-22T21:20:33.204Z,65.50
2023-05-22T21:25:35.377Z,65.10
2023-05-22T21:30:37.703Z,64.50
2023-05-22T21:35:39.995Z,65.30
2023-05-22T21:40:43.063Z,66.80
2023-05-22T21:45:45.355Z,65.60
2023-05-22T21:50:47.957Z,66.60
2023-05-22T21:55:50.338Z,65.10
2023-05-22T22:00:54.705Z,66.20
2023-05-22T22:05:56.826Z,66.20
2023-05-22T22:10:59.745Z,65.50
2023-05-22T22:16:02.019Z,65.70
2023-05-22T22:21:04.782Z,65.30
2023-05-22T22:26:07.582Z,65.60
2023-05-22T22:31:10.027Z,65.80
2023-05-22T22:36:12.166Z,67.50
2023-05-22T22:41:14.317Z,66.50
2023-05-22T22:46:16.929Z,66.80
2023-05-22T22:51:20.209Z,65.60
2023-05-22T22:56:28.257Z,67.10
2023-05-22T23:01:30.556Z,70.60
2023-05-22T23:06:33.103Z,72.70
2023-05-22T23:11:37.845Z,73.70
2023-05-22T23:16:43.531Z,73.40
2023-05-22T23:21:46.215Z,75.70
2023-05-22T23:26:48.703Z,76.00
2023-05-22T23:31:50.957Z,75.90
2023-05-22T23:36:53.151Z,78.90
2023-05-22T23:41:55.361Z,77.90
2023-05-22T23:46:57.929Z,77.70
2023-05-22T23:52:00.352Z,77.60
2023-05-22T23:57:02.488Z,77.80
